Terminal Aerodrome Forecast
Issued by NWS Lake Charles, LA

Current Version | Previous Version | Text Only | Print | Product List | Glossary On
Versions: 1 2 3 4 5 6 7 8 9 10 11 12 13 14 15 16
737
FTUS44 KLCH 301122
TAFLCH
TAF
KLCH 301122Z 3012/3112 VRB05KT P6SM SKC
     FM301500 VRB05KT P6SM VCSH SCT025 SCT250
     FM301800 20007KT P6SM VCTS SCT040CB SCT250
     FM310100 VRB03KT P6SM SCT250=

USA.gov is the U.S. government's official web portal to all federal, state and local government web resources and services.